createdAt,value
2018-02-10T00:01:08.465Z,122.50
2018-02-10T00:03:37.049Z,110.93
2018-02-10T00:06:05.415Z,110.55
2018-02-10T00:08:33.780Z,128.23
2018-02-10T00:11:02.212Z,113.65
2018-02-10T00:13:30.645Z,102.35
2018-02-10T00:15:59.305Z,112.22
2018-02-10T00:18:28.477Z,105.72
2018-02-10T00:20:56.857Z,123.30
2018-02-10T00:23:26.016Z,115.60
2018-02-10T00:25:54.456Z,110.95
2018-02-10T00:28:23.178Z,103.25
2018-02-10T00:30:51.545Z,121.82
2018-02-10T00:33:19.940Z,115.55
2018-02-10T00:35:48.333Z,111.60
2018-02-10T00:38:16.746Z,123.28
2018-02-10T00:40:46.015Z,121.90
2018-02-10T00:43:14.391Z,112.43
2018-02-10T00:45:42.761Z,109.25
2018-02-10T00:48:11.149Z,112.75
2018-02-10T00:50:39.528Z,110.75
2018-02-10T00:53:08.158Z,123.97
2018-02-10T00:55:37.305Z,127.50
2018-02-10T00:58:05.671Z,107.93
2018-02-10T01:00:34.071Z,109.10
2018-02-10T01:03:02.440Z,123.00
2018-02-10T01:05:31.025Z,122.07
2018-02-10T01:07:59.410Z,113.82
2018-02-10T01:10:27.772Z,118.62
2018-02-10T01:12:56.153Z,125.53
2018-02-10T01:15:24.541Z,125.78
2018-02-10T01:17:53.127Z,128.32
2018-02-10T01:20:21.506Z,124.68
2018-02-10T01:22:49.897Z,121.40
2018-02-10T01:25:18.293Z,123.00
2018-02-10T01:27:47.429Z,124.47
2018-02-10T01:30:16.106Z,130.48
2018-02-10T01:32:44.475Z,133.30
2018-02-10T01:35:12.837Z,123.97
2018-02-10T01:37:41.990Z,126.38
2018-02-10T01:40:10.362Z,117.80
2018-02-10T01:42:39.041Z,128.50
2018-02-10T01:45:07.579Z,115.53
2018-02-10T01:47:36.825Z,124.03
2018-02-10T01:50:22.125Z,123.85
2018-02-10T01:52:50.484Z,112.03
2018-02-10T01:55:18.918Z,113.57
2018-02-10T01:57:48.061Z,117.05
2018-02-10T02:00:16.429Z,114.25
2018-02-10T02:02:44.900Z,123.90
2018-02-10T02:05:13.293Z,118.72
2018-02-10T02:07:41.903Z,120.03
2018-02-10T02:10:10.285Z,111.05
2018-02-10T02:12:38.695Z,121.95
2018-02-10T02:15:07.865Z,118.50
2018-02-10T02:17:36.281Z,123.13
2018-02-10T02:20:05.697Z,124.95
2018-02-10T02:22:34.065Z,117.72
2018-02-10T02:25:02.429Z,128.75
2018-02-10T02:27:31.691Z,111.22
2018-02-10T02:30:00.077Z,129.60
2018-02-10T02:32:28.470Z,126.60
2018-02-10T02:34:57.605Z,122.25
2018-02-10T02:37:25.970Z,118.18
2018-02-10T02:39:54.357Z,115.93
2018-02-10T02:42:22.721Z,123.50
2018-02-10T02:44:51.538Z,125.38
2018-02-10T02:47:19.962Z,110.25
2018-02-10T02:49:49.143Z,113.50
2018-02-10T02:52:17.540Z,109.90
2018-02-10T02:54:45.919Z,120.03
2018-02-10T02:57:15.265Z,114.28
2018-02-10T02:59:43.629Z,98.95
2018-02-10T03:02:12.025Z,107.60
2018-02-10T03:04:40.425Z,108.22
2018-02-10T03:07:08.795Z,107.75
2018-02-10T03:09:37.225Z,112.03
2018-02-10T03:12:06.372Z,98.47
2018-02-10T03:14:34.745Z,108.57
2018-02-10T03:17:03.125Z,116.85
2018-02-10T03:19:31.489Z,102.15
2018-02-10T03:22:00.092Z,108.37
2018-02-10T03:24:28.483Z,97.20
2018-02-10T03:26:56.856Z,114.88
2018-02-10T03:29:25.287Z,115.95
2018-02-10T03:31:54.433Z,102.15
2018-02-10T03:34:23.454Z,101.28
2018-02-10T03:36:52.629Z,105.80
2018-02-10T03:39:21.021Z,107.97
2018-02-10T03:41:50.221Z,106.57
2018-02-10T03:44:19.396Z,99.90
2018-02-10T03:46:48.108Z,111.32
2018-02-10T03:49:16.461Z,98.18
2018-02-10T03:51:44.823Z,107.55
2018-02-10T03:54:13.208Z,110.85
2018-02-10T03:56:41.589Z,110.47
2018-02-10T03:59:10.033Z,103.20
2018-02-10T04:01:38.646Z,117.87
2018-02-10T04:04:07.354Z,105.15
2018-02-10T04:06:35.768Z,109.87
2018-02-10T04:09:04.929Z,108.05
2018-02-10T04:11:33.582Z,103.18
2018-02-10T04:14:01.989Z,101.05
2018-02-10T04:16:30.350Z,106.22
2018-02-10T04:18:58.965Z,90.60
2018-02-10T04:21:27.695Z,104.43
2018-02-10T04:23:56.329Z,106.95
2018-02-10T04:26:25.502Z,108.97
2018-02-10T04:28:53.865Z,107.80
2018-02-10T04:31:22.261Z,104.55
2018-02-10T04:33:50.633Z,103.78
2018-02-10T04:36:19.041Z,103.85
2018-02-10T04:38:48.192Z,107.45
2018-02-10T04:41:16.564Z,106.18
2018-02-10T04:43:44.962Z,104.20
2018-02-10T04:46:13.389Z,106.95
2018-02-10T04:48:42.732Z,107.85
2018-02-10T04:51:11.110Z,86.20
2018-02-10T04:53:39.483Z,104.05
2018-02-10T04:56:07.882Z,110.72
2018-02-10T04:58:36.261Z,105.15
2018-02-10T05:01:04.779Z,102.55
2018-02-10T05:03:33.171Z,102.72
2018-02-10T05:06:03.435Z,99.68
2018-02-10T05:08:31.859Z,100.47
2018-02-10T05:11:01.526Z,95.93
2018-02-10T05:13:30.160Z,110.93
2018-02-10T05:15:58.526Z,96.65
2018-02-10T05:18:27.665Z,99.70
2018-02-10T05:20:56.059Z,108.80
2018-02-10T05:23:24.484Z,103.28
2018-02-10T05:25:53.670Z,96.78
2018-02-10T05:28:22.054Z,99.47
2018-02-10T05:30:50.416Z,105.32
2018-02-10T05:33:18.803Z,107.50
2018-02-10T05:35:47.368Z,105.15
2018-02-10T05:38:15.773Z,93.62
2018-02-10T05:40:44.159Z,107.28
2018-02-10T05:43:12.525Z,102.00
2018-02-10T05:45:40.912Z,94.18
2018-02-10T05:48:09.281Z,99.10
2018-02-10T05:50:37.853Z,100.70
2018-02-10T05:53:06.269Z,106.18
2018-02-10T05:55:35.415Z,96.10
2018-02-10T05:58:03.841Z,90.97
2018-02-10T06:00:32.970Z,107.75
2018-02-10T06:03:01.775Z,115.25
2018-02-10T06:05:30.166Z,103.22
2018-02-10T06:07:58.533Z,109.70
2018-02-10T06:10:27.081Z,115.40
2018-02-10T06:12:55.496Z,105.07
2018-02-10T06:15:24.041Z,96.72
2018-02-10T06:17:52.409Z,93.18
2018-02-10T06:20:21.532Z,90.50
2018-02-10T06:22:49.945Z,100.05
2018-02-10T06:25:18.319Z,100.20
2018-02-10T06:27:46.885Z,95.93
2018-02-10T06:30:15.357Z,105.60
2018-02-10T06:32:44.449Z,99.20
2018-02-10T06:35:12.860Z,102.43
2018-02-10T06:37:41.237Z,95.18
2018-02-10T06:40:09.796Z,105.03
2018-02-10T06:42:38.181Z,111.28
2018-02-10T06:45:06.621Z,91.10
2018-02-10T06:47:36.862Z,94.28
2018-02-10T06:50:06.931Z,104.72
2018-02-10T06:52:35.999Z,90.55
2018-02-10T06:55:05.454Z,87.30
2018-02-10T06:57:35.099Z,99.70
2018-02-10T07:00:04.040Z,96.57
2018-02-10T07:02:33.749Z,95.50
2018-02-10T07:05:04.178Z,95.32
2018-02-10T07:07:33.032Z,101.97
2018-02-10T07:10:03.643Z,91.55
2018-02-10T07:12:32.025Z,110.25
2018-02-10T07:15:00.395Z,103.30
2018-02-10T07:17:28.774Z,97.00
2018-02-10T07:19:57.133Z,99.90
2018-02-10T07:22:25.745Z,103.90
2018-02-10T07:24:54.119Z,100.60
2018-02-10T07:27:22.485Z,106.47
2018-02-10T07:29:50.872Z,115.55
2018-02-10T07:32:19.246Z,104.57
2018-02-10T07:34:47.845Z,91.18
2018-02-10T07:37:16.225Z,99.50
2018-02-10T07:39:44.590Z,98.12
2018-02-10T07:42:12.981Z,86.80
2018-02-10T07:44:41.348Z,91.65
2018-02-10T07:47:10.046Z,90.70
2018-02-10T07:49:38.514Z,96.78
2018-02-10T07:52:07.424Z,87.70
2018-02-10T07:54:35.856Z,94.53
2018-02-10T07:57:05.001Z,96.43
2018-02-10T07:59:33.565Z,93.25
2018-02-10T08:02:01.938Z,95.93
2018-02-10T08:04:30.609Z,89.55
2018-02-10T08:06:59.765Z,100.28
2018-02-10T08:09:28.146Z,92.00
2018-02-10T08:11:56.701Z,83.75
2018-02-10T08:14:26.206Z,89.87
2018-02-10T08:16:54.731Z,96.43
2018-02-10T08:19:23.154Z,89.70
2018-02-10T08:21:51.525Z,86.47
2018-02-10T08:24:20.260Z,94.32
2018-02-10T08:26:50.134Z,115.50
2018-02-10T08:29:18.573Z,90.43
2018-02-10T08:31:47.733Z,100.85
2018-02-10T08:34:16.215Z,93.10
2018-02-10T08:36:44.633Z,89.70
2018-02-10T08:39:13.802Z,95.85
2018-02-10T08:41:43.026Z,90.72
2018-02-10T08:44:12.237Z,85.65
2018-02-10T08:46:41.368Z,94.72
2018-02-10T08:49:09.805Z,91.82
2018-02-10T08:51:39.460Z,92.07
2018-02-10T08:54:07.856Z,86.72
2018-02-10T08:56:36.274Z,100.07
2018-02-10T08:59:06.032Z,95.68
2018-02-10T09:01:34.629Z,93.47
2018-02-10T09:04:03.005Z,88.10
2018-02-10T09:06:31.496Z,88.32
2018-02-10T09:09:00.357Z,95.32
2018-02-10T09:11:28.746Z,93.03
2018-02-10T09:13:57.509Z,89.03
2018-02-10T09:16:25.870Z,91.18
2018-02-10T09:18:55.188Z,90.70
2018-02-10T09:21:24.115Z,83.93
2018-02-10T09:23:52.987Z,78.97
2018-02-10T09:26:21.381Z,96.40
2018-02-10T09:28:49.817Z,84.45
2018-02-10T09:31:36.086Z,87.82
2018-02-10T09:34:05.249Z,85.87
2018-02-10T09:36:33.694Z,92.60
2018-02-10T09:39:02.080Z,87.50
2018-02-10T09:41:30.478Z,98.65
2018-02-10T09:43:59.196Z,89.15
2018-02-10T09:46:28.045Z,82.80
2018-02-10T09:48:56.636Z,92.85
2018-02-10T09:51:25.939Z,93.78
2018-02-10T09:53:54.333Z,93.68
2018-02-10T09:56:22.713Z,81.70
2018-02-10T09:58:51.253Z,86.40
2018-02-10T10:01:19.739Z,83.55
2018-02-10T10:03:48.150Z,80.30
2018-02-10T10:06:16.617Z,92.57
2018-02-10T10:08:44.981Z,88.53
2018-02-10T10:11:13.366Z,86.68
2018-02-10T10:13:41.752Z,78.45
2018-02-10T10:16:10.349Z,83.55
2018-02-10T10:18:38.713Z,89.87
2018-02-10T10:21:07.391Z,76.20
2018-02-10T10:23:35.941Z,90.50
2018-02-10T10:26:05.199Z,113.00
2018-02-10T10:28:34.379Z,84.28
2018-02-10T10:31:02.746Z,88.95
2018-02-10T10:33:31.134Z,90.60
2018-02-10T10:35:59.539Z,92.90
2018-02-10T10:38:27.905Z,85.32
2018-02-10T10:40:56.479Z,88.05
2018-02-10T10:43:24.866Z,91.20
2018-02-10T10:45:53.246Z,97.30
2018-02-10T10:48:21.803Z,99.22
2018-02-10T10:50:50.261Z,80.78
2018-02-10T10:53:18.665Z,92.70
2018-02-10T10:55:47.293Z,88.37
2018-02-10T10:58:15.812Z,88.60
2018-02-10T11:00:44.305Z,88.75
2018-02-10T11:03:13.621Z,74.70
2018-02-10T11:05:42.559Z,91.85
2018-02-10T11:08:10.969Z,89.43
2018-02-10T11:10:39.341Z,90.70
2018-02-10T11:13:07.728Z,104.50
2018-02-10T11:15:36.110Z,110.07
2018-02-10T11:18:04.708Z,101.72
2018-02-10T11:20:33.073Z,103.65
2018-02-10T11:23:01.436Z,76.37
2018-02-10T11:25:29.826Z,80.95
2018-02-10T11:27:58.241Z,82.75
2018-02-10T11:30:26.641Z,91.05
2018-02-10T11:32:56.525Z,80.75
2018-02-10T11:35:24.894Z,87.60
2018-02-10T11:37:53.498Z,81.30
2018-02-10T11:40:21.868Z,82.07
2018-02-10T11:42:50.458Z,88.20
2018-02-10T11:45:18.873Z,94.80
2018-02-10T11:47:48.009Z,86.37
2018-02-10T11:50:16.394Z,72.10
2018-02-10T11:52:44.762Z,80.80
2018-02-10T11:55:13.978Z,81.35
2018-02-10T11:57:43.157Z,81.12
2018-02-10T12:00:11.544Z,78.40
2018-02-10T12:02:39.944Z,74.72
2018-02-10T12:05:08.320Z,87.22
2018-02-10T12:07:37.318Z,77.53
2018-02-10T12:10:05.778Z,78.72
2018-02-10T12:12:34.166Z,75.50
2018-02-10T12:15:02.553Z,79.10
2018-02-10T12:17:30.933Z,67.50
2018-02-10T12:19:59.508Z,69.35
2018-02-10T12:22:27.898Z,73.22
2018-02-10T12:24:56.265Z,71.37
2018-02-10T12:27:24.862Z,74.80
2018-02-10T12:29:53.236Z,82.90
2018-02-10T12:32:21.650Z,75.75
2018-02-10T12:34:50.938Z,72.12
2018-02-10T12:37:20.598Z,73.00
2018-02-10T12:39:49.447Z,73.80
2018-02-10T12:42:18.139Z,73.40
2018-02-10T12:44:46.710Z,63.65
2018-02-10T12:47:15.866Z,65.07
2018-02-10T12:49:44.245Z,71.43
2018-02-10T12:52:12.642Z,67.07
2018-02-10T12:54:41.399Z,62.80
2018-02-10T12:57:11.202Z,67.90
2018-02-10T12:59:39.860Z,57.03
2018-02-10T13:02:08.375Z,63.40
2018-02-10T13:04:37.879Z,58.28
2018-02-10T13:07:07.164Z,61.20
2018-02-10T13:09:36.511Z,65.70
2018-02-10T13:12:04.895Z,56.15
2018-02-10T13:14:33.931Z,54.42
2018-02-10T13:17:02.542Z,61.80
2018-02-10T13:19:31.061Z,59.20
2018-02-10T13:21:59.461Z,57.47
2018-02-10T13:24:29.550Z,62.42
2018-02-10T13:26:58.717Z,67.90
2018-02-10T13:29:27.184Z,64.53
2018-02-10T13:31:55.673Z,61.88
2018-02-10T13:34:24.089Z,57.25
2018-02-10T13:36:52.470Z,69.37
2018-02-10T13:39:21.010Z,63.15
2018-02-10T13:41:50.237Z,60.28
2018-02-10T13:44:18.613Z,57.13
2018-02-10T13:46:46.993Z,65.62
2018-02-10T13:49:15.364Z,60.97
2018-02-10T13:51:44.125Z,60.17
2018-02-10T13:54:12.526Z,63.30
2018-02-10T13:56:40.889Z,65.35
2018-02-10T13:59:09.291Z,57.15
2018-02-10T14:01:37.677Z,64.35
2018-02-10T14:04:06.334Z,54.42
2018-02-10T14:06:34.774Z,66.03
2018-02-10T14:09:04.725Z,59.60
2018-02-10T14:11:33.414Z,57.28
2018-02-10T14:14:02.972Z,57.22
2018-02-10T14:16:32.938Z,52.92
2018-02-10T14:19:01.365Z,54.60
2018-02-10T14:21:31.028Z,48.75
2018-02-10T14:24:00.436Z,50.15
2018-02-10T14:26:28.850Z,51.33
2018-02-10T14:28:58.906Z,65.68
2018-02-10T14:31:27.369Z,53.10
2018-02-10T14:33:56.756Z,45.58
2018-02-10T14:36:25.956Z,47.80
2018-02-10T14:38:55.141Z,57.53
2018-02-10T14:41:24.123Z,50.58
2018-02-10T14:43:53.407Z,64.22
2018-02-10T14:46:22.221Z,46.20
2018-02-10T14:48:51.446Z,51.83
2018-02-10T14:51:20.169Z,51.80
2018-02-10T14:53:49.333Z,57.85
2018-02-10T14:56:18.570Z,53.80
2018-02-10T14:58:47.803Z,52.58
2018-02-10T15:01:16.299Z,49.13
2018-02-10T15:03:45.483Z,53.08
2018-02-10T15:06:15.852Z,45.90
2018-02-10T15:08:44.616Z,48.67
2018-02-10T15:11:13.243Z,48.45
2018-02-10T15:13:41.927Z,50.40
2018-02-10T15:16:10.354Z,47.40
2018-02-10T15:18:40.757Z,54.22
2018-02-10T15:21:09.169Z,57.50
2018-02-10T15:23:38.597Z,58.55
2018-02-10T15:26:06.996Z,48.10
2018-02-10T15:28:35.698Z,50.15
2018-02-10T15:34:35.913Z,62.20
2018-02-10T15:37:04.416Z,57.72
2018-02-10T15:39:32.824Z,59.10
2018-02-10T15:42:02.340Z,56.33
2018-02-10T15:44:32.659Z,57.92
2018-02-10T15:47:01.085Z,57.10
2018-02-10T15:49:31.037Z,60.58
2018-02-10T15:51:59.470Z,56.10
2018-02-10T15:54:28.369Z,59.17
2018-02-10T15:56:57.061Z,55.78
2018-02-10T15:59:25.455Z,58.65
2018-02-10T16:01:54.518Z,59.30
2018-02-10T16:04:23.644Z,68.30
2018-02-10T16:06:54.461Z,58.17
2018-02-10T16:09:24.405Z,62.53
2018-02-10T16:11:53.059Z,62.03
2018-02-10T16:14:22.052Z,63.75
2018-02-10T16:16:50.742Z,53.28
2018-02-10T16:19:20.037Z,67.60
2018-02-10T16:21:48.882Z,64.97
2018-02-10T16:24:17.658Z,57.62
2018-02-10T16:26:46.249Z,61.42
2018-02-10T16:29:17.032Z,49.90
2018-02-10T16:31:46.056Z,63.45
2018-02-10T16:34:14.814Z,58.13
2018-02-10T16:36:43.679Z,51.70
2018-02-10T16:39:12.184Z,57.38
2018-02-10T16:41:41.910Z,57.20
2018-02-10T16:44:15.242Z,59.13
2018-02-10T16:46:45.040Z,63.80
2018-02-10T16:49:19.056Z,62.80
2018-02-10T16:51:49.028Z,56.88
2018-02-10T16:54:18.683Z,64.32
2018-02-10T16:56:47.841Z,59.38
2018-02-10T16:59:16.256Z,57.47
2018-02-10T17:01:45.576Z,59.08
2018-02-10T17:04:14.503Z,59.38
2018-02-10T17:06:44.724Z,65.57
2018-02-10T17:09:13.512Z,69.60
2018-02-10T17:11:42.313Z,63.38
2018-02-10T17:14:10.780Z,57.97
2018-02-10T17:16:39.175Z,58.10
2018-02-10T17:19:08.288Z,62.47
2018-02-10T17:21:37.000Z,73.30
2018-02-10T17:24:05.538Z,61.13
2018-02-10T17:26:34.354Z,64.00
2018-02-10T17:29:02.761Z,61.22
2018-02-10T17:31:31.733Z,63.85
2018-02-10T17:34:01.094Z,63.67
2018-02-10T17:36:29.474Z,67.20
2018-02-10T17:38:58.035Z,67.97
2018-02-10T17:41:26.625Z,76.28
2018-02-10T17:43:55.300Z,67.57
2018-02-10T17:46:23.957Z,71.68
2018-02-10T17:48:52.543Z,72.47
2018-02-10T17:51:21.529Z,73.72
2018-02-10T17:53:50.209Z,71.95
2018-02-10T17:56:18.833Z,74.40
2018-02-10T17:58:47.202Z,70.50
2018-02-10T18:01:15.609Z,81.20
2018-02-10T18:03:45.272Z,76.47
2018-02-10T18:06:14.524Z,68.78
2018-02-10T18:08:43.706Z,69.87
2018-02-10T18:11:12.186Z,70.07
2018-02-10T18:13:41.391Z,66.30
2018-02-10T18:16:10.589Z,74.47
2018-02-10T18:18:39.263Z,80.78
2018-02-10T18:21:09.041Z,73.90
2018-02-10T18:23:37.778Z,78.10
2018-02-10T18:26:06.657Z,80.85
2018-02-10T18:28:35.095Z,84.30
2018-02-10T18:31:04.694Z,75.85
2018-02-10T18:33:34.836Z,78.70
2018-02-10T18:36:03.445Z,67.90
2018-02-10T18:38:32.408Z,68.47
2018-02-10T18:41:01.327Z,76.07
2018-02-10T18:43:29.905Z,85.47
2018-02-10T18:46:01.158Z,80.97
2018-02-10T18:48:29.895Z,70.28
2018-02-10T18:50:58.379Z,74.35
2018-02-10T18:53:27.963Z,78.47
2018-02-10T18:55:56.820Z,75.20
2018-02-10T18:58:26.343Z,81.75
2018-02-10T19:00:57.146Z,70.87
2018-02-10T19:03:27.892Z,83.62
2018-02-10T19:05:56.785Z,90.65
2018-02-10T19:08:25.839Z,83.50
2018-02-10T19:10:54.748Z,80.05
2018-02-10T19:13:23.636Z,84.07
2018-02-10T19:15:52.457Z,82.35
2018-02-10T19:18:23.020Z,81.93
2018-02-10T19:20:51.788Z,85.28
2018-02-10T19:23:20.553Z,79.28
2018-02-10T19:25:49.783Z,77.78
2018-02-10T19:28:19.240Z,76.68
2018-02-10T19:30:48.657Z,76.87
2018-02-10T19:33:17.800Z,78.72
2018-02-10T19:35:46.535Z,70.32
2018-02-10T19:38:15.329Z,71.72
2018-02-10T19:40:43.809Z,87.95
2018-02-10T19:43:12.667Z,77.15
2018-02-10T19:45:41.586Z,66.65
2018-02-10T19:48:09.985Z,72.72
2018-02-10T19:50:38.603Z,65.18
2018-02-10T19:53:08.191Z,74.65
2018-02-10T19:55:36.846Z,58.67
2018-02-10T19:58:05.497Z,61.78
2018-02-10T20:00:34.165Z,56.05
2018-02-10T20:03:03.981Z,63.65
2018-02-10T20:05:32.874Z,55.12
2018-02-10T20:08:02.034Z,55.28
2018-02-10T20:10:33.414Z,55.35
2018-02-10T20:13:02.835Z,60.20
2018-02-10T20:15:31.731Z,50.67
2018-02-10T20:18:01.144Z,50.90
2018-02-10T20:20:30.559Z,51.28
2018-02-10T20:23:00.757Z,51.63
2018-02-10T20:25:29.605Z,46.08
2018-02-10T20:27:59.337Z,51.63
2018-02-10T20:30:29.094Z,49.75
2018-02-10T20:32:57.636Z,52.28
2018-02-10T20:35:26.280Z,52.78
2018-02-10T20:37:55.099Z,44.50
2018-02-10T20:40:25.117Z,44.42
2018-02-10T20:42:53.787Z,45.88
2018-02-10T20:45:22.771Z,32.65
2018-02-10T20:47:51.964Z,37.92
2018-02-10T20:50:20.849Z,43.97
2018-02-10T20:52:49.717Z,41.03
2018-02-10T20:55:18.858Z,36.35
2018-02-10T20:57:48.047Z,32.60
2018-02-10T21:00:17.050Z,36.53
2018-02-10T21:02:45.791Z,38.15
2018-02-10T21:05:14.511Z,34.38
2018-02-10T21:07:43.534Z,36.13
2018-02-10T21:10:14.781Z,38.45
2018-02-10T21:12:43.709Z,36.55
2018-02-10T21:15:12.163Z,32.03
2018-02-10T21:17:40.873Z,31.33
2018-02-10T21:20:09.583Z,33.92
2018-02-10T21:22:39.328Z,32.88
2018-02-10T21:25:08.349Z,32.78
2018-02-10T21:27:38.425Z,40.90
2018-02-10T21:30:07.793Z,36.10
2018-02-10T21:32:37.341Z,26.92
2018-02-10T21:35:06.623Z,32.03
2018-02-10T21:37:35.938Z,36.38
2018-02-10T21:40:06.413Z,35.97
2018-02-10T21:42:34.917Z,41.17
2018-02-10T21:45:03.372Z,36.03
2018-02-10T21:47:31.873Z,118.43
2018-02-10T21:50:00.293Z,51.63
2018-02-10T21:52:30.305Z,33.58
2018-02-10T21:54:58.709Z,46.78
2018-02-10T21:57:27.545Z,27.73
2018-02-10T21:59:56.804Z,34.47
2018-02-10T22:02:26.122Z,36.35
2018-02-10T22:04:54.822Z,34.22
2018-02-10T22:07:23.201Z,33.40
2018-02-10T22:09:51.569Z,39.20
2018-02-10T22:12:19.967Z,34.97
2018-02-10T22:14:49.838Z,35.70
2018-02-10T22:17:19.050Z,36.47
2018-02-10T22:19:47.453Z,35.53
2018-02-10T22:22:15.842Z,34.90
2018-02-10T22:24:44.402Z,34.50
2018-02-10T22:27:13.029Z,32.70
2018-02-10T22:29:43.223Z,41.05
2018-02-10T22:32:14.045Z,33.08
2018-02-10T22:34:43.851Z,30.08
2018-02-10T22:37:12.680Z,34.08
2018-02-10T22:39:41.912Z,34.63
2018-02-10T22:42:10.417Z,34.63
2018-02-10T22:44:39.115Z,37.25
2018-02-10T22:47:07.547Z,31.10
2018-02-10T22:49:35.985Z,32.65
2018-02-10T22:52:04.486Z,29.65
2018-02-10T22:54:33.727Z,33.97
2018-02-10T22:57:02.466Z,30.88
2018-02-10T22:59:30.965Z,30.37
2018-02-10T23:02:00.112Z,23.87
2018-02-10T23:04:28.488Z,27.13
2018-02-10T23:06:56.902Z,27.23
2018-02-10T23:09:25.375Z,30.17
2018-02-10T23:11:53.923Z,27.17
2018-02-10T23:14:23.326Z,31.33
2018-02-10T23:16:51.720Z,26.10
2018-02-10T23:19:22.512Z,22.65
2018-02-10T23:21:50.969Z,22.83
2018-02-10T23:24:20.254Z,25.23
2018-02-10T23:26:48.698Z,20.48
2018-02-10T23:29:17.116Z,28.38
2018-02-10T23:31:45.505Z,27.00
2018-02-10T23:34:14.642Z,24.80
2018-02-10T23:36:43.230Z,29.30
2018-02-10T23:39:11.601Z,22.27
2018-02-10T23:41:39.984Z,27.20
2018-02-10T23:44:08.409Z,24.80
2018-02-10T23:46:36.794Z,26.33
2018-02-10T23:49:05.440Z,27.50
2018-02-10T23:51:33.812Z,22.35
2018-02-10T23:54:02.174Z,27.58
2018-02-10T23:56:30.590Z,24.10
2018-02-10T23:58:59.001Z,22.17
